sensor_id;sensor_type;location;lat;lon;timestamp;pressure;altitude;pressure_sealevel;temperature;humidity
48644;BME280;34928;37.302;-121.984;2024-02-16T00:05:13;101506.0;;;25.27;27.47
48644;BME280;34928;37.302;-121.984;2024-02-16T00:15:18;101509.0;;;25.25;27.33
48644;BME280;34928;37.302;-121.984;2024-02-16T00:25:23;101508.0;;;25.27;27.22
48644;BME280;34928;37.302;-121.984;2024-02-16T00:35:28;101500.0;;;25.29;27.15
48644;BME280;34928;37.302;-121.984;2024-02-16T00:45:33;101492.0;;;25.27;27.53
48644;BME280;34928;37.302;-121.984;2024-02-16T00:55:37;101475.0;;;25.29;28.36
48644;BME280;34928;37.302;-121.984;2024-02-16T01:05:43;101493.0;;;25.29;28.68
48644;BME280;34928;37.302;-121.984;2024-02-16T01:15:48;101495.0;;;25.36;28.72
48644;BME280;34928;37.302;-121.984;2024-02-16T01:25:54;101515.0;;;25.34;28.72
48644;BME280;34928;37.302;-121.984;2024-02-16T01:35:57;101510.0;;;25.35;28.96
48644;BME280;34928;37.302;-121.984;2024-02-16T01:46:02;101503.0;;;25.38;29.12
48644;BME280;34928;37.302;-121.984;2024-02-16T01:56:08;101522.0;;;25.30;29.05
48644;BME280;34928;37.302;-121.984;2024-02-16T02:06:13;101519.0;;;24.63;29.62
48644;BME280;34928;37.302;-121.984;2024-02-16T02:16:19;101545.0;;;25.38;29.60
48644;BME280;34928;37.302;-121.984;2024-02-16T02:26:28;101543.0;;;25.09;29.91
48644;BME280;34928;37.302;-121.984;2024-02-16T02:36:33;101542.0;;;25.58;29.75
48644;BME280;34928;37.302;-121.984;2024-02-16T02:46:38;101553.0;;;25.05;29.94
48644;BME280;34928;37.302;-121.984;2024-02-16T02:56:43;101551.0;;;25.31;29.84
48644;BME280;34928;37.302;-121.984;2024-02-16T03:06:47;101546.0;;;25.60;29.89
48644;BME280;34928;37.302;-121.984;2024-02-16T03:16:53;101543.0;;;25.66;30.26
48644;BME280;34928;37.302;-121.984;2024-02-16T03:26:58;101548.0;;;25.41;30.27
48644;BME280;34928;37.302;-121.984;2024-02-16T03:37:03;101566.0;;;25.71;30.60
48644;BME280;34928;37.302;-121.984;2024-02-16T03:47:08;101569.0;;;25.45;30.65
48644;BME280;34928;37.302;-121.984;2024-02-16T03:57:13;101572.0;;;25.27;31.16
48644;BME280;34928;37.302;-121.984;2024-02-16T04:07:17;101588.0;;;25.68;30.44
48644;BME280;34928;37.302;-121.984;2024-02-16T04:17:23;101574.0;;;25.43;30.16
48644;BME280;34928;37.302;-121.984;2024-02-16T04:27:28;101569.0;;;25.06;30.75
48644;BME280;34928;37.302;-121.984;2024-02-16T04:37:34;101556.0;;;25.12;30.28
48644;BME280;34928;37.302;-121.984;2024-02-16T04:47:38;101551.0;;;25.37;30.10
48644;BME280;34928;37.302;-121.984;2024-02-16T04:57:43;101550.0;;;25.68;29.94
48644;BME280;34928;37.302;-121.984;2024-02-16T05:07:54;101562.0;;;25.21;30.05
48644;BME280;34928;37.302;-121.984;2024-02-16T05:17:58;101552.0;;;25.53;30.10
48644;BME280;34928;37.302;-121.984;2024-02-16T05:28:03;101547.0;;;25.22;29.95
48644;BME280;34928;37.302;-121.984;2024-02-16T05:38:07;101548.0;;;25.40;29.88
48644;BME280;34928;37.302;-121.984;2024-02-16T05:48:12;101556.0;;;25.14;29.98
48644;BME280;34928;37.302;-121.984;2024-02-16T05:58:18;101560.0;;;25.47;29.61
48644;BME280;34928;37.302;-121.984;2024-02-16T06:08:23;101553.0;;;25.28;29.63
48644;BME280;34928;37.302;-121.984;2024-02-16T06:18:28;101548.0;;;25.34;29.79
48644;BME280;34928;37.302;-121.984;2024-02-16T06:28:33;101537.0;;;25.31;29.62
48644;BME280;34928;37.302;-121.984;2024-02-16T06:38:37;101540.0;;;25.14;29.29
48644;BME280;34928;37.302;-121.984;2024-02-16T06:48:42;101531.0;;;24.82;29.63
48644;BME280;34928;37.302;-121.984;2024-02-16T06:58:48;101510.0;;;25.17;29.69
48644;BME280;34928;37.302;-121.984;2024-02-16T07:08:53;101528.0;;;25.18;29.46
48644;BME280;34928;37.302;-121.984;2024-02-16T07:18:58;101477.0;;;24.88;29.48
48644;BME280;34928;37.302;-121.984;2024-02-16T07:29:02;101462.0;;;24.97;30.38
48644;BME280;34928;37.302;-121.984;2024-02-16T07:39:08;101466.0;;;24.98;30.46
48644;BME280;34928;37.302;-121.984;2024-02-16T07:49:13;101479.0;;;24.60;30.17
48644;BME280;34928;37.302;-121.984;2024-02-16T07:59:18;101486.0;;;25.01;29.74
48644;BME280;34928;37.302;-121.984;2024-02-16T08:09:23;101479.0;;;25.13;29.65
48644;BME280;34928;37.302;-121.984;2024-02-16T08:19:37;101475.0;;;24.80;29.56
48644;BME280;34928;37.302;-121.984;2024-02-16T08:29:43;101495.0;;;24.55;29.66
48644;BME280;34928;37.302;-121.984;2024-02-16T08:39:50;101516.0;;;24.96;29.35
48644;BME280;34928;37.302;-121.984;2024-02-16T08:49:54;101497.0;;;24.62;29.32
48644;BME280;34928;37.302;-121.984;2024-02-16T08:59:58;101486.0;;;24.71;29.31
48644;BME280;34928;37.302;-121.984;2024-02-16T09:10:03;101487.0;;;24.44;29.28
48644;BME280;34928;37.302;-121.984;2024-02-16T09:20:10;101505.0;;;24.04;29.31
48644;BME280;34928;37.302;-121.984;2024-02-16T09:30:14;101489.0;;;24.41;29.32
48644;BME280;34928;37.302;-121.984;2024-02-16T09:40:18;101464.0;;;24.59;29.28
48644;BME280;34928;37.302;-121.984;2024-02-16T09:50:22;101451.0;;;24.16;29.38
48644;BME280;34928;37.302;-121.984;2024-02-16T10:00:27;101437.0;;;24.44;29.25
48644;BME280;34928;37.302;-121.984;2024-02-16T10:10:33;101431.0;;;23.90;29.23
48644;BME280;34928;37.302;-121.984;2024-02-16T10:20:39;101435.0;;;24.24;29.36
48644;BME280;34928;37.302;-121.984;2024-02-16T10:30:44;101457.0;;;24.41;29.32
48644;BME280;34928;37.302;-121.984;2024-02-16T10:40:48;101427.0;;;23.75;29.44
48644;BME280;34928;37.302;-121.984;2024-02-16T10:50:54;101421.0;;;23.98;29.33
48644;BME280;34928;37.302;-121.984;2024-02-16T11:00:57;101405.0;;;23.94;29.32
48644;BME280;34928;37.302;-121.984;2024-02-16T11:11:03;101424.0;;;23.80;29.41
48644;BME280;34928;37.302;-121.984;2024-02-16T11:21:12;101404.0;;;23.65;29.51
48644;BME280;34928;37.302;-121.984;2024-02-16T11:31:17;101402.0;;;23.66;29.43
48644;BME280;34928;37.302;-121.984;2024-02-16T11:41:23;101375.0;;;23.77;29.46
48644;BME280;34928;37.302;-121.984;2024-02-16T11:51:27;101416.0;;;23.50;29.50
48644;BME280;34928;37.302;-121.984;2024-02-16T12:01:32;101390.0;;;23.49;29.37
48644;BME280;34928;37.302;-121.984;2024-02-16T12:11:38;101424.0;;;23.58;29.50
48644;BME280;34928;37.302;-121.984;2024-02-16T12:21:42;101433.0;;;23.54;29.44
48644;BME280;34928;37.302;-121.984;2024-02-16T12:31:47;101404.0;;;23.06;29.65
48644;BME280;34928;37.302;-121.984;2024-02-16T12:41:53;101437.0;;;23.39;29.48
48644;BME280;34928;37.302;-121.984;2024-02-16T12:51:58;101431.0;;;23.50;29.54
48644;BME280;34928;37.302;-121.984;2024-02-16T13:02:03;101425.0;;;23.18;29.60
48644;BME280;34928;37.302;-121.984;2024-02-16T13:12:08;101433.0;;;23.06;29.66
48644;BME280;34928;37.302;-121.984;2024-02-16T13:22:13;101437.0;;;23.12;29.56
48644;BME280;34928;37.302;-121.984;2024-02-16T13:32:18;101428.0;;;22.92;29.77
48644;BME280;34928;37.302;-121.984;2024-02-16T13:42:22;101430.0;;;23.10;29.54
48644;BME280;34928;37.302;-121.984;2024-02-16T13:52:28;101407.0;;;22.53;30.58
48644;BME280;34928;37.302;-121.984;2024-02-16T14:02:33;101395.0;;;23.06;30.68
48644;BME280;34928;37.302;-121.984;2024-02-16T14:12:38;101397.0;;;23.04;30.80
48644;BME280;34928;37.302;-121.984;2024-02-16T14:22:42;101444.0;;;22.92;30.99
48644;BME280;34928;37.302;-121.984;2024-02-16T14:32:47;101415.0;;;23.16;30.94
48644;BME280;34928;37.302;-121.984;2024-02-16T14:42:52;101384.0;;;23.69;30.67
48644;BME280;34928;37.302;-121.984;2024-02-16T14:52:58;101420.0;;;23.59;31.11
48644;BME280;34928;37.302;-121.984;2024-02-16T15:03:03;101437.0;;;23.60;31.13
48644;BME280;34928;37.302;-121.984;2024-02-16T15:13:08;101409.0;;;23.74;30.45
48644;BME280;34928;37.302;-121.984;2024-02-16T15:23:12;101435.0;;;23.72;31.01
48644;BME280;34928;37.302;-121.984;2024-02-16T15:33:18;101456.0;;;23.75;30.54
48644;BME280;34928;37.302;-121.984;2024-02-16T15:43:22;101443.0;;;24.01;30.97
48644;BME280;34928;37.302;-121.984;2024-02-16T15:53:28;101469.0;;;23.93;30.44
48644;BME280;34928;37.302;-121.984;2024-02-16T16:03:33;101495.0;;;24.23;30.49
48644;BME280;34928;37.302;-121.984;2024-02-16T16:13:38;101498.0;;;24.13;30.48
48644;BME280;34928;37.302;-121.984;2024-02-16T16:23:43;101503.0;;;23.99;30.66
48644;BME280;34928;37.302;-121.984;2024-02-16T16:33:48;101487.0;;;23.89;30.11
48644;BME280;34928;37.302;-121.984;2024-02-16T16:43:53;101488.0;;;24.19;29.61
48644;BME280;34928;37.302;-121.984;2024-02-16T16:53:58;101474.0;;;24.17;29.43
48644;BME280;34928;37.302;-121.984;2024-02-16T17:04:02;101494.0;;;24.14;29.98
48644;BME280;34928;37.302;-121.984;2024-02-16T17:14:08;101471.0;;;24.13;29.79
48644;BME280;34928;37.302;-121.984;2024-02-16T17:24:13;101465.0;;;24.08;29.83
48644;BME280;34928;37.302;-121.984;2024-02-16T17:34:19;101472.0;;;23.88;30.36
48644;BME280;34928;37.302;-121.984;2024-02-16T17:44:23;101451.0;;;23.69;30.39
48644;BME280;34928;37.302;-121.984;2024-02-16T17:54:28;101476.0;;;23.87;29.90
48644;BME280;34928;37.302;-121.984;2024-02-16T18:04:32;101496.0;;;24.07;29.82
48644;BME280;34928;37.302;-121.984;2024-02-16T18:14:37;101478.0;;;24.10;29.70
48644;BME280;34928;37.302;-121.984;2024-02-16T18:24:42;101466.0;;;24.15;30.77
48644;BME280;34928;37.302;-121.984;2024-02-16T18:34:47;101441.0;;;24.03;30.96
48644;BME280;34928;37.302;-121.984;2024-02-16T18:44:53;101464.0;;;23.78;30.90
48644;BME280;34928;37.302;-121.984;2024-02-16T18:54:58;101498.0;;;24.05;30.70
48644;BME280;34928;37.302;-121.984;2024-02-16T19:05:02;101488.0;;;24.05;30.61
48644;BME280;34928;37.302;-121.984;2024-02-16T19:15:09;101480.0;;;24.08;30.59
48644;BME280;34928;37.302;-121.984;2024-02-16T19:25:14;101450.0;;;24.08;30.53
48644;BME280;34928;37.302;-121.984;2024-02-16T19:35:17;101437.0;;;24.08;30.53
48644;BME280;34928;37.302;-121.984;2024-02-16T19:45:23;101434.0;;;23.83;30.53
48644;BME280;34928;37.302;-121.984;2024-02-16T19:55:28;101420.0;;;24.15;30.47
48644;BME280;34928;37.302;-121.984;2024-02-16T20:05:33;101396.0;;;24.13;30.47
48644;BME280;34928;37.302;-121.984;2024-02-16T20:15:38;101394.0;;;23.86;30.48
48644;BME280;34928;37.302;-121.984;2024-02-16T20:25:44;101389.0;;;23.91;30.41
48644;BME280;34928;37.302;-121.984;2024-02-16T20:35:48;101364.0;;;24.23;30.36
48644;BME280;34928;37.302;-121.984;2024-02-16T20:45:53;101363.0;;;24.20;30.35
48644;BME280;34928;37.302;-121.984;2024-02-16T20:55:57;101345.0;;;24.28;30.26
48644;BME280;34928;37.302;-121.984;2024-02-16T21:06:02;101327.0;;;24.32;30.21
48644;BME280;34928;37.302;-121.984;2024-02-16T21:16:08;101307.0;;;24.31;30.24
48644;BME280;34928;37.302;-121.984;2024-02-16T21:26:13;101293.0;;;24.10;30.19
48644;BME280;34928;37.302;-121.984;2024-02-16T21:36:18;101284.0;;;23.90;30.17
48644;BME280;34928;37.302;-121.984;2024-02-16T21:46:26;101259.0;;;24.12;30.49
48644;BME280;34928;37.302;-121.984;2024-02-16T21:56:32;101255.0;;;24.56;32.56
48644;BME280;34928;37.302;-121.984;2024-02-16T22:06:38;101256.0;;;24.25;32.44
48644;BME280;34928;37.302;-121.984;2024-02-16T22:16:43;101224.0;;;24.53;32.60
48644;BME280;34928;37.302;-121.984;2024-02-16T22:26:49;101232.0;;;24.51;34.41
48644;BME280;34928;37.302;-121.984;2024-02-16T22:36:54;101207.0;;;24.50;32.84
48644;BME280;34928;37.302;-121.984;2024-02-16T22:46:58;101232.0;;;24.24;32.91
48644;BME280;34928;37.302;-121.984;2024-02-16T22:57:03;101235.0;;;24.26;34.24
48644;BME280;34928;37.302;-121.984;2024-02-16T23:07:07;101233.0;;;24.60;32.74
48644;BME280;34928;37.302;-121.984;2024-02-16T23:17:13;101229.0;;;24.34;33.60
48644;BME280;34928;37.302;-121.984;2024-02-16T23:27:18;101201.0;;;24.39;32.74
48644;BME280;34928;37.302;-121.984;2024-02-16T23:37:22;101223.0;;;24.42;33.00
48644;BME280;34928;37.302;-121.984;2024-02-16T23:47:27;101226.0;;;24.41;34.06
48644;BME280;34928;37.302;-121.984;2024-02-16T23:57:34;101218.0;;;24.49;32.57
